Date,TemperatureHighF,TemperatureAvgF,TemperatureLowF,DewpointHighF,DewpointAvgF,DewpointLowF,HumidityHigh,HumidityAvg,HumidityLow,PressureMaxIn,PressureMinIn,WindSpeedMaxMPH,WindSpeedAvgMPH,GustSpeedMaxMPH,PrecipitationSumIn
2013-3-1,42,34,25,18,9,-2,51,36,26,0.00,40.00,17,9,37,0.00
2013-3-2,48,39,33,20,18,14,54,43,31,0.00,40.00,14,10,30,0.00
2013-3-3,50,42,33,28,18,12,81,42,25,0.00,40.00,19,9,47,0.00
2013-3-4,38,26,18,30,12,-5,97,60,33,0.00,40.00,14,7,29,0.05
2013-3-5,46,31,16,0,-5,-12,45,23,10,0.00,40.00,13,8,30,0.03
2013-3-6,53,43,24,10,4,-7,28,20,13,0.00,40.00,12,7,31,0.00
2013-3-7,56,44,27,17,10,-1,59,28,10,0.00,40.00,12,7,32,0.00
2013-3-8,50,34,22,24,14,8,88,48,21,0.00,40.00,12,3,21,0.00
2013-3-9,33,26,18,27,20,4,95,77,45,0.00,40.00,5,2,14,0.12
2013-3-10,42,30,17,13,7,-3,60,38,25,0.00,40.00,13,8,26,0.03
2013-3-11,41,32,24,27,15,9,94,51,31,0.00,40.00,16,11,34,0.00
2013-3-12,43,30,20,25,19,17,94,68,35,0.00,40.00,14,6,34,0.11
2013-3-13,54,43,37,22,18,11,49,37,18,0.00,40.00,16,11,32,0.05
2013-3-14,59,48,41,20,15,9,37,28,16,0.00,40.00,15,10,34,0.00
2013-3-15,63,53,44,23,16,14,38,24,16,0.00,40.00,16,9,35,0.00
2013-3-16,50,40,30,29,22,15,74,49,27,0.00,40.00,11,6,26,0.00
2013-3-17,42,33,23,25,18,0,89,54,31,0.00,40.00,15,6,37,0.00
2013-3-18,35,27,20,18,3,-9,69,36,25,0.00,40.00,15,11,37,0.00
2013-3-19,41,32,23,7,-11,-27,45,17,5,0.00,40.00,19,12,41,0.00
2013-3-20,49,32,10,22,7,-12,77,39,13,0.00,40.00,14,8,33,0.00
2013-3-21,42,36,27,29,15,-6,74,44,20,0.00,40.00,17,9,37,0.00
2013-3-22,37,26,18,22,7,-3,90,49,19,0.00,40.00,14,8,32,0.00
2013-3-23,20,14,-2,15,8,-8,89,78,65,0.00,40.00,9,3,14,0.00
2013-3-24,26,9,-7,3,-4,-13,80,59,31,0.00,40.00,11,4,22,0.09
2013-3-25,34,16,-3,10,0,-10,76,52,23,0.00,40.00,9,4,21,0.08
2013-3-26,45,31,5,27,13,-2,78,47,32,0.00,40.00,12,6,28,0.10
2013-3-27,50,37,27,27,23,17,90,60,29,0.00,40.00,10,4,21,0.06
2013-3-28,56,47,35,29,23,17,74,41,22,0.00,40.00,7,4,19,0.00
2013-3-29,54,40,29,32,26,20,82,58,29,0.00,40.00,12,5,26,0.00
2013-3-30,53,43,30,34,22,-100,85,48,22,0.00,40.00,11,6,31,0.02
2013-3-31,58,42,22,26,14,-4,93,42,8,0.00,40.00,16,7,32,0.02